Terminal Aerodrome Forecast
Issued by NWS Missoula, MT

Home | Current Version | Previous Version | Text Only | Print | Product List | Glossary On
Versions: 1 2 3 4 5 6 7 8 9 10 11 12 13 14 15 16 17 18 19 20
000
FTUS45 KMSO 280530
TAFGPI
TAF
KGPI 280530Z 2806/2906 VRB03KT P6SM BKN070
     FM281200 VRB04KT P6SM VCSH BKN040
     FM281800 18009G18KT P6SM -SHRA BKN100=

USA.gov is the U.S. government's official web portal to all federal, state and local government web resources and services.